createdAt,value
2018-12-14T00:01:12.509Z,14.80
2018-12-14T00:03:40.089Z,14.80
2018-12-14T00:06:07.648Z,12.53
2018-12-14T00:08:35.244Z,14.53
2018-12-14T00:11:02.805Z,15.40
2018-12-14T00:13:30.400Z,14.73
2018-12-14T00:15:57.945Z,13.80
2018-12-14T00:18:25.540Z,14.40
2018-12-14T00:20:53.088Z,14.00
2018-12-14T00:23:20.680Z,14.57
2018-12-14T00:25:48.245Z,13.20
2018-12-14T00:28:15.836Z,13.53
2018-12-14T00:30:43.397Z,12.90
2018-12-14T00:33:10.980Z,13.60
2018-12-14T00:35:38.639Z,13.87
2018-12-14T00:38:06.303Z,13.30
2018-12-14T00:40:33.852Z,13.80
2018-12-14T00:43:01.427Z,13.40
2018-12-14T00:45:28.976Z,13.17
2018-12-14T00:47:56.528Z,13.97
2018-12-14T00:50:24.112Z,13.93
2018-12-14T00:52:51.672Z,15.00
2018-12-14T00:55:19.253Z,13.60
2018-12-14T00:57:46.804Z,13.30
2018-12-14T01:00:14.448Z,13.43
2018-12-14T01:02:42.008Z,12.80
2018-12-14T01:05:09.592Z,12.97
2018-12-14T01:07:37.153Z,13.90
2018-12-14T01:10:05.405Z,14.83
2018-12-14T01:12:32.974Z,14.30
2018-12-14T01:15:00.557Z,13.20
2018-12-14T01:17:28.117Z,13.70
2018-12-14T01:19:55.704Z,13.30
2018-12-14T01:22:23.296Z,12.63
2018-12-14T01:24:50.966Z,13.10
2018-12-14T01:27:18.517Z,13.30
2018-12-14T01:29:46.084Z,13.70
2018-12-14T01:32:13.643Z,14.00
2018-12-14T01:34:41.216Z,14.83
2018-12-14T01:37:08.772Z,12.93
2018-12-14T01:39:36.352Z,12.90
2018-12-14T01:42:05.014Z,13.83
2018-12-14T01:44:32.804Z,13.90
2018-12-14T01:47:00.373Z,13.60
2018-12-14T01:49:28.020Z,13.10
2018-12-14T01:51:55.574Z,14.30
2018-12-14T01:54:23.152Z,13.37
2018-12-14T01:56:50.713Z,12.57
2018-12-14T01:59:18.296Z,13.20
2018-12-14T02:01:45.860Z,12.77
2018-12-14T02:04:13.440Z,13.17
2018-12-14T02:06:40.987Z,13.23
2018-12-14T02:09:08.573Z,13.07
2018-12-14T02:11:36.137Z,14.23
2018-12-14T02:14:03.725Z,13.97
2018-12-14T02:16:31.280Z,13.20
2018-12-14T02:18:58.839Z,12.53
2018-12-14T02:21:26.421Z,13.93
2018-12-14T02:23:53.980Z,12.80
2018-12-14T02:26:21.565Z,11.70
2018-12-14T02:28:49.124Z,13.40
2018-12-14T02:31:16.705Z,12.70
2018-12-14T02:33:44.277Z,12.63
2018-12-14T02:36:11.851Z,12.73
2018-12-14T02:38:39.414Z,13.30
2018-12-14T02:41:06.990Z,13.00
2018-12-14T02:43:34.704Z,12.00
2018-12-14T02:46:02.308Z,12.17
2018-12-14T02:48:29.867Z,13.07
2018-12-14T02:50:57.445Z,13.73
2018-12-14T02:53:24.996Z,13.43
2018-12-14T02:55:52.579Z,13.57
2018-12-14T02:58:20.145Z,12.20
2018-12-14T03:00:47.729Z,12.70
2018-12-14T03:03:15.344Z,12.57
2018-12-14T03:05:43.061Z,11.90
2018-12-14T03:08:10.617Z,12.40
2018-12-14T03:10:38.205Z,12.10
2018-12-14T03:13:05.768Z,13.00
2018-12-14T03:15:33.349Z,12.70
2018-12-14T03:18:00.916Z,11.33
2018-12-14T03:20:28.489Z,11.67
2018-12-14T03:22:56.053Z,11.33
2018-12-14T03:25:23.632Z,12.33
2018-12-14T03:27:51.201Z,10.63
2018-12-14T03:30:18.778Z,11.13
2018-12-14T03:32:46.338Z,12.40
2018-12-14T03:35:13.917Z,11.00
2018-12-14T03:37:41.482Z,12.00
2018-12-14T03:40:09.073Z,11.77
2018-12-14T03:42:36.639Z,12.30
2018-12-14T03:45:04.290Z,11.37
2018-12-14T03:47:31.849Z,11.50
2018-12-14T03:49:59.440Z,11.37
2018-12-14T03:52:27.004Z,11.40
2018-12-14T03:54:54.568Z,11.07
2018-12-14T03:57:22.145Z,11.73
2018-12-14T03:59:49.697Z,12.00
2018-12-14T04:02:17.279Z,11.97
2018-12-14T04:04:44.840Z,12.80
2018-12-14T04:07:12.425Z,11.03
2018-12-14T04:09:39.976Z,10.67
2018-12-14T04:12:07.556Z,11.97
2018-12-14T04:14:35.121Z,10.83
2018-12-14T04:17:02.696Z,12.40
2018-12-14T04:19:30.248Z,11.57
2018-12-14T04:21:57.837Z,11.97
2018-12-14T04:24:25.432Z,12.43
2018-12-14T04:26:53.110Z,11.83
2018-12-14T04:29:20.681Z,11.23
2018-12-14T04:31:48.264Z,11.57
2018-12-14T04:34:15.849Z,10.10
2018-12-14T04:36:43.428Z,10.80
2018-12-14T04:39:10.985Z,11.63
2018-12-14T04:41:38.567Z,11.07
2018-12-14T04:44:06.384Z,12.60
2018-12-14T04:46:33.989Z,11.23
2018-12-14T04:49:01.545Z,11.37
2018-12-14T04:51:29.156Z,11.30
2018-12-14T04:53:56.713Z,10.77
2018-12-14T04:56:24.294Z,11.90
2018-12-14T04:58:51.858Z,13.07
2018-12-14T05:01:19.438Z,12.83
2018-12-14T05:03:47.003Z,11.50
2018-12-14T05:06:14.581Z,11.20
2018-12-14T05:08:42.233Z,10.93
2018-12-14T05:11:10.392Z,12.33
2018-12-14T05:13:38.865Z,11.60
2018-12-14T05:16:06.448Z,11.30
2018-12-14T05:18:34.009Z,12.00
2018-12-14T05:21:01.592Z,11.33
2018-12-14T05:23:29.165Z,11.30
2018-12-14T05:25:56.734Z,10.20
2018-12-14T05:28:24.317Z,11.00
2018-12-14T05:30:51.877Z,10.20
2018-12-14T05:33:19.448Z,11.37
2018-12-14T05:35:47.010Z,12.20
2018-12-14T05:38:14.580Z,12.20
2018-12-14T05:40:42.129Z,12.07
2018-12-14T05:43:09.704Z,11.07
2018-12-14T05:45:37.256Z,11.97
2018-12-14T05:48:04.828Z,11.57
2018-12-14T05:50:32.375Z,11.23
2018-12-14T05:52:59.965Z,11.63
2018-12-14T05:55:27.533Z,11.93
2018-12-14T05:57:55.117Z,10.43
2018-12-14T06:00:22.676Z,18.50
2018-12-14T06:02:50.255Z,11.57
2018-12-14T06:05:17.811Z,16.77
2018-12-14T06:07:45.393Z,13.73
2018-12-14T06:10:12.953Z,11.67
2018-12-14T06:12:40.524Z,11.47
2018-12-14T06:15:08.144Z,11.27
2018-12-14T06:17:35.725Z,11.77
2018-12-14T06:20:03.361Z,10.87
2018-12-14T06:22:30.948Z,12.80
2018-12-14T06:24:58.513Z,12.77
2018-12-14T06:27:26.092Z,12.30
2018-12-14T06:29:53.656Z,11.97
2018-12-14T06:32:21.409Z,11.23
2018-12-14T06:34:49.057Z,12.53
2018-12-14T06:37:16.800Z,11.70
2018-12-14T06:39:44.365Z,12.00
2018-12-14T06:42:12.278Z,10.90
2018-12-14T06:44:40.524Z,11.77
2018-12-14T06:47:09.005Z,12.17
2018-12-14T06:49:36.568Z,11.37
2018-12-14T06:52:04.157Z,9.73
2018-12-14T06:54:32.141Z,11.47
2018-12-14T06:56:59.707Z,11.93
2018-12-14T06:59:27.317Z,11.13
2018-12-14T07:01:54.867Z,11.47
2018-12-14T07:04:23.666Z,12.47
2018-12-14T07:06:51.221Z,11.00
2018-12-14T07:09:19.096Z,11.23
2018-12-14T07:11:46.654Z,11.37
2018-12-14T07:14:15.036Z,12.23
2018-12-14T07:16:42.590Z,11.37
2018-12-14T07:19:11.080Z,11.77
2018-12-14T07:21:39.205Z,12.60
2018-12-14T07:24:07.176Z,11.27
2018-12-14T07:26:34.812Z,12.40
2018-12-14T07:29:03.363Z,11.87
2018-12-14T07:31:30.984Z,15.37
2018-12-14T07:33:58.574Z,12.27
2018-12-14T07:36:26.136Z,11.33
2018-12-14T07:38:53.725Z,12.90
2018-12-14T07:41:21.913Z,11.60
2018-12-14T07:43:49.492Z,11.30
2018-12-14T07:46:17.977Z,11.00
2018-12-14T07:48:45.565Z,11.60
2018-12-14T07:51:13.461Z,12.30
2018-12-14T07:53:41.039Z,12.10
2018-12-14T07:56:08.600Z,12.17
2018-12-14T07:58:38.152Z,11.00
2018-12-14T08:01:06.457Z,11.50
2018-12-14T08:03:34.371Z,11.70
2018-12-14T08:06:01.927Z,11.40
2018-12-14T08:08:29.512Z,10.87
2018-12-14T08:10:57.072Z,10.50
2018-12-14T08:13:24.664Z,10.83
2018-12-14T08:15:52.224Z,10.83
2018-12-14T08:18:19.868Z,11.60
2018-12-14T08:20:47.428Z,10.83
2018-12-14T08:23:15.005Z,11.93
2018-12-14T08:25:42.560Z,11.60
2018-12-14T08:28:10.144Z,12.37
2018-12-14T08:30:37.705Z,11.40
2018-12-14T08:33:05.280Z,12.50
2018-12-14T08:35:32.865Z,11.47
2018-12-14T08:38:00.430Z,11.03
2018-12-14T08:40:28.011Z,11.93
2018-12-14T08:42:55.573Z,11.10
2018-12-14T08:45:23.145Z,11.57
2018-12-14T08:47:50.857Z,13.13
2018-12-14T08:50:18.434Z,10.90
2018-12-14T08:52:45.997Z,11.50
2018-12-14T08:55:13.577Z,11.67
2018-12-14T08:57:41.141Z,11.20
2018-12-14T09:00:08.965Z,10.90
2018-12-14T09:02:36.530Z,12.83
2018-12-14T09:05:04.575Z,12.13
2018-12-14T09:07:32.128Z,11.73
2018-12-14T09:09:59.704Z,12.27
2018-12-14T09:12:27.262Z,12.63
2018-12-14T09:14:54.832Z,11.53
2018-12-14T09:17:22.453Z,12.83
2018-12-14T09:19:50.700Z,15.37
2018-12-14T09:22:18.265Z,12.97
2018-12-14T09:24:45.850Z,12.63
2018-12-14T09:27:13.413Z,12.87
2018-12-14T09:29:40.985Z,12.40
2018-12-14T09:32:08.536Z,13.40
2018-12-14T09:34:36.290Z,13.20
2018-12-14T09:37:03.854Z,12.60
2018-12-14T09:39:31.445Z,12.93
2018-12-14T09:41:59.002Z,14.10
2018-12-14T09:44:26.576Z,12.47
2018-12-14T09:46:54.136Z,13.53
2018-12-14T09:49:21.783Z,13.07
2018-12-14T09:51:49.342Z,13.40
2018-12-14T09:54:16.921Z,13.27
2018-12-14T09:56:44.472Z,12.60
2018-12-14T09:59:12.053Z,12.60
2018-12-14T10:01:39.617Z,11.90
2018-12-14T10:04:07.269Z,13.07
2018-12-14T10:06:34.825Z,12.53
2018-12-14T10:09:02.561Z,12.63
2018-12-14T10:11:30.143Z,12.27
2018-12-14T10:14:00.807Z,12.07
2018-12-14T10:16:27.352Z,11.40
2018-12-14T10:18:55.078Z,12.67
2018-12-14T10:21:22.656Z,10.53
2018-12-14T10:23:50.212Z,11.93
2018-12-14T10:26:17.808Z,11.63
2018-12-14T10:28:45.354Z,11.83
2018-12-14T10:31:12.925Z,11.97
2018-12-14T10:33:40.472Z,12.10
2018-12-14T10:36:08.221Z,12.00
2018-12-14T10:38:35.780Z,11.73
2018-12-14T10:41:03.362Z,11.80
2018-12-14T10:43:30.924Z,11.67
2018-12-14T10:45:58.506Z,11.83
2018-12-14T10:48:26.064Z,12.00
2018-12-14T10:50:53.645Z,10.90
2018-12-14T10:53:21.205Z,11.50
2018-12-14T10:55:48.775Z,11.07
2018-12-14T10:58:16.323Z,12.87
2018-12-14T11:00:49.674Z,11.13
2018-12-14T11:03:17.228Z,12.07
2018-12-14T11:05:44.797Z,10.77
2018-12-14T11:08:12.349Z,11.20
2018-12-14T11:10:40.784Z,11.83
2018-12-14T11:13:08.341Z,11.63
2018-12-14T11:15:35.912Z,11.70
2018-12-14T11:18:03.524Z,12.03
2018-12-14T11:20:31.096Z,13.30
2018-12-14T11:22:58.656Z,11.63
2018-12-14T11:25:26.241Z,11.70
2018-12-14T11:27:53.793Z,12.33
2018-12-14T11:30:21.375Z,11.30
2018-12-14T11:32:48.925Z,12.07
2018-12-14T11:35:16.496Z,11.30
2018-12-14T11:37:44.043Z,11.67
2018-12-14T11:40:11.624Z,10.90
2018-12-14T11:42:39.173Z,11.00
2018-12-14T11:45:06.794Z,13.03
2018-12-14T11:47:34.369Z,11.67
2018-12-14T11:50:01.928Z,11.40
2018-12-14T11:52:29.513Z,10.93
2018-12-14T11:54:57.069Z,11.63
2018-12-14T11:57:24.650Z,12.63
2018-12-14T11:59:52.212Z,11.80
2018-12-14T12:02:19.798Z,11.53
2018-12-14T12:04:47.356Z,12.07
2018-12-14T12:07:14.920Z,12.27
2018-12-14T12:09:42.481Z,12.40
2018-12-14T12:12:10.064Z,10.80
2018-12-14T12:14:37.616Z,11.13
2018-12-14T12:17:05.192Z,10.77
2018-12-14T12:19:32.747Z,11.23
2018-12-14T12:22:00.388Z,10.90
2018-12-14T12:24:27.936Z,9.70
2018-12-14T12:26:55.529Z,10.80
2018-12-14T12:29:23.091Z,10.97
2018-12-14T12:31:50.661Z,10.90
2018-12-14T12:34:18.217Z,10.03
2018-12-14T12:36:45.796Z,10.70
2018-12-14T12:39:13.357Z,9.90
2018-12-14T12:41:40.928Z,11.83
2018-12-14T12:44:08.484Z,10.60
2018-12-14T12:46:36.073Z,10.60
2018-12-14T12:49:03.639Z,10.90
2018-12-14T12:51:31.422Z,10.83
2018-12-14T12:53:58.975Z,10.40
2018-12-14T12:56:26.733Z,10.60
2018-12-14T12:58:54.539Z,12.00
2018-12-14T13:01:22.191Z,10.53
2018-12-14T13:03:49.756Z,11.10
2018-12-14T13:06:17.325Z,9.93
2018-12-14T13:08:44.881Z,11.60
2018-12-14T13:11:12.461Z,11.00
2018-12-14T13:13:40.079Z,10.50
2018-12-14T13:16:07.650Z,11.57
2018-12-14T13:18:35.277Z,10.57
2018-12-14T13:21:02.836Z,10.70
2018-12-14T13:23:30.415Z,12.13
2018-12-14T13:25:57.968Z,11.57
2018-12-14T13:28:25.724Z,10.00
2018-12-14T13:30:53.276Z,9.67
2018-12-14T13:33:21.146Z,10.93
2018-12-14T13:35:48.711Z,11.50
2018-12-14T13:38:16.289Z,10.20
2018-12-14T13:40:43.987Z,11.17
2018-12-14T13:43:11.592Z,10.70
2018-12-14T13:45:39.243Z,10.57
2018-12-14T13:48:06.826Z,9.73
2018-12-14T13:50:34.385Z,10.50
2018-12-14T13:53:01.961Z,11.00
2018-12-14T13:55:29.516Z,10.90
2018-12-14T13:57:57.089Z,9.87
2018-12-14T14:00:24.812Z,11.40
2018-12-14T14:02:52.458Z,13.60
2018-12-14T14:05:20.012Z,11.10
2018-12-14T14:07:47.589Z,12.67
2018-12-14T14:10:15.148Z,10.43
2018-12-14T14:12:42.737Z,10.00
2018-12-14T14:15:10.425Z,11.60
2018-12-14T14:17:38.013Z,11.03
2018-12-14T14:20:06.129Z,11.10
2018-12-14T14:22:33.976Z,11.40
2018-12-14T14:25:01.649Z,11.10
2018-12-14T14:27:29.261Z,10.30
2018-12-14T14:29:56.888Z,11.30
2018-12-14T14:32:24.470Z,11.00
2018-12-14T14:34:52.024Z,10.90
2018-12-14T14:37:19.606Z,11.63
2018-12-14T14:39:47.179Z,11.37
2018-12-14T14:42:14.759Z,11.10
2018-12-14T14:44:42.322Z,9.90
2018-12-14T14:47:09.903Z,11.30
2018-12-14T14:49:37.464Z,10.00
2018-12-14T14:52:05.084Z,10.07
2018-12-14T14:54:32.657Z,10.03
2018-12-14T14:57:00.220Z,11.27
2018-12-14T14:59:27.821Z,11.87
2018-12-14T15:01:55.380Z,11.10
2018-12-14T15:04:22.958Z,11.90
2018-12-14T15:06:50.529Z,11.60
2018-12-14T15:09:18.824Z,11.83
2018-12-14T15:11:46.558Z,12.20
2018-12-14T15:14:14.150Z,14.03
2018-12-14T15:16:41.711Z,12.87
2018-12-14T15:19:09.285Z,13.67
2018-12-14T15:21:36.860Z,12.63
2018-12-14T15:24:04.440Z,13.17
2018-12-14T15:26:31.999Z,11.70
2018-12-14T15:29:00.606Z,12.30
2018-12-14T15:31:28.164Z,11.00
2018-12-14T15:33:55.751Z,11.30
2018-12-14T15:36:23.313Z,11.80
2018-12-14T15:38:50.948Z,11.43
2018-12-14T15:41:18.918Z,11.63
2018-12-14T15:43:46.500Z,12.57
2018-12-14T15:46:14.449Z,11.80
2018-12-14T15:48:42.032Z,12.20
2018-12-14T15:51:09.593Z,13.87
2018-12-14T15:53:37.175Z,12.30
2018-12-14T15:56:04.736Z,11.90
2018-12-14T15:58:32.317Z,13.43
2018-12-14T16:01:01.097Z,14.17
2018-12-14T16:03:29.059Z,13.97
2018-12-14T16:05:56.628Z,13.80
2018-12-14T16:08:24.214Z,13.53
2018-12-14T16:10:51.768Z,14.67
2018-12-14T16:13:19.357Z,12.60
2018-12-14T16:15:47.542Z,13.00
2018-12-14T16:18:15.358Z,13.13
2018-12-14T16:20:43.067Z,11.50
2018-12-14T16:23:10.747Z,11.40
2018-12-14T16:25:38.405Z,12.40
2018-12-14T16:28:05.968Z,12.73
2018-12-14T16:30:33.553Z,14.10
2018-12-14T16:33:01.145Z,13.30
2018-12-14T16:35:28.708Z,13.10
2018-12-14T16:37:56.265Z,14.00
2018-12-14T16:40:23.837Z,13.70
2018-12-14T16:42:51.397Z,13.20
2018-12-14T16:45:19.472Z,13.23
2018-12-14T16:47:47.029Z,14.00
2018-12-14T16:50:14.730Z,14.67
2018-12-14T16:52:42.297Z,14.77
2018-12-14T16:55:10.537Z,13.80
2018-12-14T16:57:38.097Z,12.00
2018-12-14T17:00:06.648Z,11.90
2018-12-14T17:02:34.240Z,10.70
2018-12-14T17:05:01.836Z,12.07
2018-12-14T17:07:29.724Z,12.23
2018-12-14T17:09:57.632Z,12.53
2018-12-14T17:12:26.109Z,13.57
2018-12-14T17:14:53.684Z,12.23
2018-12-14T17:17:21.544Z,12.53
2018-12-14T17:19:49.129Z,13.87
2018-12-14T17:22:17.363Z,12.70
2018-12-14T17:24:45.017Z,11.87
2018-12-14T17:27:12.564Z,12.57
2018-12-14T17:29:40.370Z,11.77
2018-12-14T17:32:08.336Z,12.03
2018-12-14T17:34:36.248Z,12.53
2018-12-14T17:37:04.280Z,10.93
2018-12-14T17:39:31.837Z,13.37
2018-12-14T17:41:59.429Z,12.20
2018-12-14T17:44:27.161Z,12.53
2018-12-14T17:46:54.910Z,11.30
2018-12-14T17:49:22.481Z,12.93
2018-12-14T17:51:51.437Z,12.77
2018-12-14T17:54:19.556Z,12.50
2018-12-14T17:56:47.143Z,11.90
2018-12-14T17:59:14.709Z,11.40
2018-12-14T18:01:42.294Z,11.67
2018-12-14T18:04:09.967Z,12.80
2018-12-14T18:06:37.555Z,13.50
2018-12-14T18:09:05.285Z,13.40
2018-12-14T18:11:32.864Z,13.93
2018-12-14T18:14:00.423Z,12.73
2018-12-14T18:16:28.168Z,13.30
2018-12-14T18:18:55.721Z,13.10
2018-12-14T18:21:23.364Z,12.80
2018-12-14T18:23:50.925Z,13.60
2018-12-14T18:26:18.486Z,13.83
2018-12-14T18:28:46.081Z,12.70
2018-12-14T18:31:13.640Z,12.73
2018-12-14T18:33:41.208Z,12.03
2018-12-14T18:36:08.773Z,12.00
2018-12-14T18:38:36.357Z,12.57
2018-12-14T18:41:03.913Z,12.10
2018-12-14T18:43:31.497Z,13.40
2018-12-14T18:45:59.057Z,12.63
2018-12-14T18:48:28.003Z,13.07
2018-12-14T18:50:55.735Z,13.43
2018-12-14T18:53:23.311Z,12.70
2018-12-14T18:55:50.869Z,12.70
2018-12-14T18:58:18.448Z,12.83
2018-12-14T19:00:46.008Z,12.87
2018-12-14T19:03:13.559Z,13.90
2018-12-14T19:05:41.140Z,12.57
2018-12-14T19:08:08.699Z,13.57
2018-12-14T19:10:36.285Z,14.03
2018-12-14T19:13:03.838Z,14.30
2018-12-14T19:15:31.424Z,16.73
2018-12-14T19:17:58.980Z,13.40
2018-12-14T19:20:26.564Z,12.40
2018-12-14T19:22:54.121Z,11.50
2018-12-14T19:25:21.704Z,11.60
2018-12-14T19:27:49.256Z,12.33
2018-12-14T19:30:16.836Z,12.83
2018-12-14T19:32:44.384Z,13.60
2018-12-14T19:35:12.053Z,12.13
2018-12-14T19:37:39.616Z,11.40
2018-12-14T19:40:08.232Z,11.57
2018-12-14T19:42:35.804Z,12.07
2018-12-14T19:45:03.623Z,11.20
2018-12-14T19:47:31.273Z,11.20
2018-12-14T19:49:58.828Z,11.97
2018-12-14T19:52:26.411Z,12.47
2018-12-14T19:54:53.963Z,12.10
2018-12-14T19:57:21.536Z,13.37
2018-12-14T19:59:49.100Z,12.57
2018-12-14T20:02:16.748Z,13.87
2018-12-14T20:04:44.301Z,12.23
2018-12-14T20:07:11.863Z,13.70
2018-12-14T20:09:39.512Z,13.40
2018-12-14T20:12:07.141Z,13.03
2018-12-14T20:14:34.717Z,14.47
2018-12-14T20:17:02.276Z,12.90
2018-12-14T20:19:29.861Z,12.30
2018-12-14T20:21:57.881Z,14.23
2018-12-14T20:24:25.469Z,12.30
2018-12-14T20:26:53.029Z,12.17
2018-12-14T20:29:20.606Z,13.00
2018-12-14T20:31:48.371Z,14.27
2018-12-14T20:34:16.000Z,12.83
2018-12-14T20:36:43.557Z,12.37
2018-12-14T20:39:11.136Z,13.17
2018-12-14T20:41:38.692Z,12.70
2018-12-14T20:44:06.292Z,12.50
2018-12-14T20:46:34.574Z,14.60
2018-12-14T20:49:02.237Z,13.53
2018-12-14T20:51:29.834Z,14.43
2018-12-14T20:53:57.388Z,15.07
2018-12-14T20:56:24.979Z,14.27
2018-12-14T20:58:52.589Z,14.67
2018-12-14T21:01:20.180Z,12.57
2018-12-14T21:03:47.743Z,13.97
2018-12-14T21:06:15.322Z,13.47
2018-12-14T21:08:42.905Z,13.50
2018-12-14T21:11:10.493Z,12.67
2018-12-14T21:13:38.058Z,13.97
2018-12-14T21:16:05.649Z,15.43
2018-12-14T21:18:33.219Z,14.37
2018-12-14T21:21:00.783Z,14.87
2018-12-14T21:23:28.375Z,14.50
2018-12-14T21:25:55.937Z,14.30
2018-12-14T21:28:23.758Z,13.20
2018-12-14T21:30:51.360Z,14.03
2018-12-14T21:33:18.941Z,14.00
2018-12-14T21:35:46.497Z,14.10
2018-12-14T21:38:14.328Z,14.47
2018-12-14T21:40:41.893Z,14.93
2018-12-14T21:43:09.472Z,12.67
2018-12-14T21:45:37.030Z,13.93
2018-12-14T21:48:04.815Z,13.53
2018-12-14T21:50:32.369Z,12.70
2018-12-14T21:52:59.954Z,13.93
2018-12-14T21:55:27.513Z,13.30
2018-12-14T21:57:55.294Z,12.90
2018-12-14T22:00:22.857Z,13.07
2018-12-14T22:02:50.459Z,13.90
2018-12-14T22:05:18.025Z,13.53
2018-12-14T22:07:45.612Z,13.17
2018-12-14T22:10:13.162Z,12.17
2018-12-14T22:12:40.744Z,12.90
2018-12-14T22:15:08.305Z,12.00
2018-12-14T22:17:35.889Z,12.27
2018-12-14T22:20:03.709Z,12.10
2018-12-14T22:22:31.297Z,12.67
2018-12-14T22:24:58.909Z,11.50
2018-12-14T22:27:26.625Z,11.90
2018-12-14T22:29:54.207Z,11.10
2018-12-14T22:32:21.888Z,11.13
2018-12-14T22:34:49.447Z,10.97
2018-12-14T22:37:17.021Z,11.17
2018-12-14T22:39:44.749Z,11.50
2018-12-14T22:42:12.339Z,10.70
2018-12-14T22:44:39.895Z,10.80
2018-12-14T22:47:07.460Z,11.07
2018-12-14T22:49:35.056Z,10.50
2018-12-14T22:52:02.621Z,10.60
2018-12-14T22:54:30.205Z,10.40
2018-12-14T22:56:57.764Z,11.00
2018-12-14T22:59:25.362Z,12.10
2018-12-14T23:01:52.946Z,12.90
2018-12-14T23:04:21.216Z,11.17
2018-12-14T23:06:49.012Z,11.93
2018-12-14T23:09:16.634Z,12.20
2018-12-14T23:11:44.204Z,11.80
2018-12-14T23:14:11.796Z,10.83
2018-12-14T23:16:39.350Z,13.23
2018-12-14T23:19:06.933Z,13.00
2018-12-14T23:21:34.495Z,11.70
2018-12-14T23:24:02.081Z,12.10
2018-12-14T23:26:29.646Z,12.40
2018-12-14T23:28:57.259Z,12.43
2018-12-14T23:31:24.881Z,13.10
2018-12-14T23:33:52.456Z,13.07
2018-12-14T23:36:20.010Z,12.50
2018-12-14T23:38:47.605Z,11.93
2018-12-14T23:41:15.160Z,12.63
2018-12-14T23:43:42.745Z,13.13
2018-12-14T23:46:10.334Z,12.83
2018-12-14T23:48:38.022Z,11.57
2018-12-14T23:51:05.576Z,11.77
2018-12-14T23:53:33.449Z,13.20
2018-12-14T23:56:01.057Z,13.03
2018-12-14T23:58:28.776Z,14.20
